createdAt,value
2023-04-18T00:04:35.389Z,14.55
2023-04-18T00:09:36.890Z,9.93
2023-04-18T00:14:38.238Z,9.32
2023-04-18T00:19:43.106Z,12.45
2023-04-18T00:24:44.467Z,13.18
2023-04-18T00:29:45.946Z,13.82
2023-04-18T00:34:47.296Z,10.38
2023-04-18T00:39:48.612Z,11.45
2023-04-18T00:44:49.957Z,10.95
2023-04-18T00:49:51.484Z,14.43
2023-04-18T00:54:53.493Z,14.35
2023-04-18T00:59:54.959Z,12.48
2023-04-18T01:04:58.605Z,14.57
2023-04-18T01:10:01.522Z,10.13
2023-04-18T01:15:04.706Z,11.52
2023-04-18T01:20:06.710Z,13.05
2023-04-18T01:25:09.092Z,15.90
2023-04-18T01:30:11.006Z,12.52
2023-04-18T01:35:12.354Z,9.95
2023-04-18T01:40:13.889Z,12.68
2023-04-18T01:45:15.988Z,9.82
2023-04-18T01:50:17.361Z,14.07
2023-04-18T01:55:18.820Z,13.18
2023-04-18T02:00:20.941Z,16.63
2023-04-18T02:05:22.357Z,11.93
2023-04-18T02:10:23.856Z,15.02
2023-04-18T02:15:25.312Z,11.25
2023-04-18T02:20:28.669Z,15.23
2023-04-18T02:25:30.486Z,18.60
2023-04-18T02:30:32.038Z,14.63
2023-04-18T02:35:33.419Z,14.13
2023-04-18T02:40:34.762Z,23.38
2023-04-18T02:45:36.193Z,14.82
2023-04-18T02:50:37.575Z,14.55
2023-04-18T02:55:38.988Z,13.80
2023-04-18T03:00:40.373Z,17.13
2023-04-18T03:05:41.757Z,14.25
2023-04-18T03:10:43.124Z,18.02
2023-04-18T03:15:44.565Z,17.15
2023-04-18T03:20:46.073Z,15.02
2023-04-18T03:25:47.458Z,15.57
2023-04-18T03:30:48.835Z,20.02
2023-04-18T03:35:50.443Z,19.17
2023-04-18T03:40:52.173Z,18.95
2023-04-18T03:45:53.566Z,21.17
2023-04-18T03:50:55.153Z,20.77
2023-04-18T03:55:56.645Z,25.42
2023-04-18T04:00:58.002Z,22.60
2023-04-18T04:05:59.460Z,22.30
2023-04-18T04:11:00.848Z,27.23
2023-04-18T04:16:02.674Z,21.17
2023-04-18T04:21:05.742Z,23.42
2023-04-18T04:26:08.142Z,19.50
2023-04-18T04:31:10.316Z,17.83
2023-04-18T04:36:16.162Z,20.60
2023-04-18T04:41:18.774Z,15.95
2023-04-18T04:46:20.691Z,19.55
2023-04-18T04:51:22.114Z,15.18
2023-04-18T04:56:24.025Z,14.80
2023-04-18T05:01:25.625Z,17.48
2023-04-18T05:06:27.453Z,15.02
2023-04-18T05:11:28.795Z,16.65
2023-04-18T05:16:30.190Z,16.50
2023-04-18T05:21:31.623Z,17.17
2023-04-18T05:26:32.993Z,17.05
2023-04-18T05:31:34.439Z,13.48
2023-04-18T05:36:36.339Z,13.18
2023-04-18T05:41:37.693Z,14.98
2023-04-18T05:46:39.320Z,14.82
2023-04-18T05:51:40.873Z,13.43
2023-04-18T05:56:42.524Z,11.60
2023-04-18T06:01:44.205Z,12.90
2023-04-18T06:06:46.064Z,13.05
2023-04-18T06:11:47.416Z,14.10
2023-04-18T06:16:49.049Z,11.48
2023-04-18T06:21:50.682Z,9.65
2023-04-18T06:26:52.072Z,12.20
2023-04-18T06:31:53.506Z,11.82
2023-04-18T06:36:55.718Z,11.13
2023-04-18T06:41:58.043Z,9.20
2023-04-18T06:46:59.473Z,11.45
2023-04-18T06:52:00.816Z,10.18
2023-04-18T06:57:03.630Z,8.52
2023-04-18T07:02:05.060Z,9.02
2023-04-18T07:07:06.542Z,10.98
2023-04-18T07:12:07.921Z,6.60
2023-04-18T07:17:09.316Z,6.60
2023-04-18T07:22:10.830Z,6.93
2023-04-18T07:27:12.244Z,8.65
2023-04-18T07:32:13.645Z,6.70
2023-04-18T07:37:16.552Z,5.05
2023-04-18T07:42:17.939Z,5.20
2023-04-18T07:47:22.273Z,4.63
2023-04-18T07:52:24.067Z,6.80
2023-04-18T07:57:25.386Z,8.95
2023-04-18T08:02:26.839Z,9.15
2023-04-18T08:07:28.268Z,6.88
2023-04-18T08:12:29.644Z,8.43
2023-04-18T08:17:31.346Z,8.30
2023-04-18T08:22:33.426Z,10.85
2023-04-18T08:27:34.830Z,9.23
2023-04-18T08:32:36.800Z,6.03
2023-04-18T08:37:39.281Z,6.90
2023-04-18T08:42:43.660Z,8.18
2023-04-18T08:47:45.120Z,6.65
2023-04-18T08:52:49.657Z,9.00
2023-04-18T08:57:54.069Z,6.95
2023-04-18T09:02:59.056Z,8.98
2023-04-18T09:08:26.426Z,7.50
2023-04-18T09:13:39.860Z,7.18
2023-04-18T09:18:44.177Z,8.90
2023-04-18T09:23:50.205Z,7.93
2023-04-18T09:28:53.977Z,8.68
2023-04-18T09:33:57.051Z,7.25
2023-04-18T09:38:58.617Z,6.85
2023-04-18T09:44:15.695Z,8.30
2023-04-18T09:49:17.874Z,8.40
2023-04-18T09:54:20.983Z,7.13
2023-04-18T09:59:36.643Z,6.43
2023-04-18T10:04:38.439Z,5.85
2023-04-18T10:09:44.474Z,7.40
2023-04-18T10:14:46.204Z,13.10
2023-04-18T10:20:05.441Z,6.85
2023-04-18T10:25:07.363Z,6.65
2023-04-18T10:30:09.349Z,4.75
2023-04-18T10:35:11.136Z,6.53
2023-04-18T10:40:12.599Z,7.35
2023-04-18T10:45:20.865Z,5.57
2023-04-18T10:50:22.988Z,5.55
2023-04-18T10:55:28.552Z,5.55
2023-04-18T11:00:31.017Z,4.85
2023-04-18T11:05:32.469Z,3.60
2023-04-18T11:10:33.821Z,3.33
2023-04-18T11:15:36.686Z,2.90
2023-04-18T11:20:45.639Z,3.22
2023-04-18T11:25:50.366Z,4.00
2023-04-18T11:30:51.736Z,3.92
2023-04-18T11:35:58.269Z,3.63
2023-04-18T11:41:02.502Z,3.60
2023-04-18T11:46:03.908Z,3.22
2023-04-18T11:51:06.655Z,2.95
2023-04-18T11:56:08.021Z,4.78
2023-04-18T12:01:35.636Z,3.03
2023-04-18T12:06:50.885Z,4.00
2023-04-18T12:12:03.081Z,2.63
2023-04-18T12:17:04.505Z,4.70
2023-04-18T12:22:09.611Z,3.67
2023-04-18T12:27:12.046Z,3.15
2023-04-18T12:32:13.436Z,4.10
2023-04-18T12:37:14.760Z,3.20
2023-04-18T12:42:16.098Z,2.38
2023-04-18T12:47:17.526Z,2.75
2023-04-18T12:52:18.989Z,3.60
2023-04-18T12:57:20.543Z,3.17
2023-04-18T13:02:22.266Z,5.18
2023-04-18T13:07:24.832Z,4.88
2023-04-18T13:12:26.457Z,4.93
2023-04-18T13:17:27.929Z,4.93
2023-04-18T13:22:30.804Z,5.45
2023-04-18T13:27:32.166Z,4.18
2023-04-18T13:32:33.757Z,5.93
2023-04-18T13:37:35.611Z,5.28
2023-04-18T13:42:38.482Z,5.57
2023-04-18T13:47:39.970Z,6.68
2023-04-18T13:52:41.334Z,11.13
2023-04-18T13:57:42.691Z,7.05
2023-04-18T14:02:44.175Z,5.78
2023-04-18T14:07:45.678Z,7.10
2023-04-18T14:12:47.019Z,5.15
2023-04-18T14:17:48.436Z,7.65
2023-04-18T14:22:53.030Z,7.43
2023-04-18T14:28:09.392Z,6.00
2023-04-18T14:33:10.981Z,8.73
2023-04-18T14:38:12.354Z,9.95
2023-04-18T14:43:13.992Z,8.15
2023-04-18T14:48:15.839Z,10.38
2023-04-18T14:53:17.222Z,6.72
2023-04-18T14:58:18.579Z,6.40
2023-04-18T15:03:20.223Z,6.78
2023-04-18T15:08:21.955Z,6.50
2023-04-18T15:13:23.365Z,6.85
2023-04-18T15:18:24.724Z,6.40
2023-04-18T15:23:26.220Z,7.07
2023-04-18T15:28:27.780Z,7.50
2023-04-18T15:33:29.217Z,6.63
2023-04-18T15:38:32.842Z,7.05
2023-04-18T15:43:34.726Z,6.40
2023-04-18T15:48:36.356Z,6.00
2023-04-18T15:53:37.701Z,7.30
2023-04-18T15:58:39.405Z,6.53
2023-04-18T16:03:40.904Z,10.10
2023-04-18T16:08:42.339Z,6.45
2023-04-18T16:13:43.664Z,6.85
2023-04-18T16:18:45.597Z,6.43
2023-04-18T16:23:46.972Z,6.70
2023-04-18T16:28:48.528Z,6.25
2023-04-18T16:33:52.388Z,7.63
2023-04-18T16:38:53.920Z,5.88
2023-04-18T16:43:55.389Z,5.47
2023-04-18T16:48:56.775Z,5.60
2023-04-18T16:53:58.091Z,4.20
2023-04-18T16:58:59.497Z,4.70
2023-04-18T17:04:02.122Z,5.88
2023-04-18T17:09:06.151Z,7.88
2023-04-18T17:14:08.626Z,6.72
2023-04-18T17:19:10.625Z,5.43
2023-04-18T17:24:11.968Z,6.15
2023-04-18T17:29:13.452Z,10.75
2023-04-18T17:34:15.010Z,6.15
2023-04-18T17:39:17.001Z,5.70
2023-04-18T17:44:18.358Z,7.70
2023-04-18T17:49:21.053Z,6.22
2023-04-18T17:54:22.402Z,6.97
2023-04-18T17:59:23.968Z,7.65
2023-04-18T18:04:26.638Z,7.68
2023-04-18T18:09:28.387Z,9.35
2023-04-18T18:14:29.782Z,6.97
2023-04-18T18:19:31.486Z,8.27
2023-04-18T18:24:32.859Z,7.53
2023-04-18T18:29:34.193Z,8.32
2023-04-18T18:34:36.073Z,8.77
2023-04-18T18:39:37.616Z,8.85
2023-04-18T18:44:39.022Z,8.45
2023-04-18T18:49:40.706Z,7.40
2023-04-18T18:54:42.080Z,9.55
2023-04-18T18:59:43.457Z,6.40
2023-04-18T19:04:44.935Z,8.60
2023-04-18T19:09:47.023Z,12.38
2023-04-18T19:14:49.635Z,16.95
2023-04-18T19:19:52.103Z,8.45
2023-04-18T19:24:53.545Z,8.63
2023-04-18T19:29:54.945Z,7.78
2023-04-18T19:34:56.304Z,9.30
2023-04-18T19:39:57.624Z,7.25
2023-04-18T19:45:00.191Z,10.32
2023-04-18T19:50:01.553Z,7.38
2023-04-18T19:55:02.932Z,9.93
2023-04-18T20:00:07.030Z,9.63
2023-04-18T20:05:09.272Z,9.23
2023-04-18T20:10:11.315Z,9.10
2023-04-18T20:15:12.715Z,7.57
2023-04-18T20:20:14.055Z,7.13
2023-04-18T20:25:15.389Z,7.50
2023-04-18T20:30:16.801Z,7.93
2023-04-18T20:35:19.779Z,7.93
2023-04-18T20:40:21.808Z,6.80
2023-04-18T20:45:24.626Z,7.22
2023-04-18T20:50:25.981Z,7.38
2023-04-18T20:55:27.743Z,6.40
2023-04-18T21:00:29.074Z,7.35
2023-04-18T21:05:31.998Z,6.03
2023-04-18T21:10:33.872Z,5.88
2023-04-18T21:15:35.757Z,6.63
2023-04-18T21:20:37.142Z,8.35
2023-04-18T21:25:38.812Z,6.22
2023-04-18T21:30:40.147Z,5.18
2023-04-18T21:35:41.471Z,5.53
2023-04-18T21:40:42.785Z,6.22
2023-04-18T21:45:46.000Z,5.22
2023-04-18T21:50:53.830Z,6.30
2023-04-18T21:55:55.198Z,4.82
2023-04-18T22:00:56.714Z,5.38
2023-04-18T22:05:58.502Z,5.07
2023-04-18T22:11:00.181Z,4.13
2023-04-18T22:16:03.022Z,4.55
2023-04-18T22:21:04.760Z,4.82
2023-04-18T22:26:06.133Z,6.07
2023-04-18T22:31:07.575Z,4.30
2023-04-18T22:36:09.084Z,3.83
2023-04-18T22:41:10.423Z,4.80
2023-04-18T22:46:11.757Z,4.15
2023-04-18T22:51:14.717Z,5.65
2023-04-18T22:56:16.263Z,4.47
2023-04-18T23:01:17.834Z,4.65
2023-04-18T23:06:19.316Z,5.05
2023-04-18T23:11:21.100Z,5.78
2023-04-18T23:16:22.940Z,6.15
2023-04-18T23:21:24.502Z,7.03
2023-04-18T23:26:26.367Z,5.63
2023-04-18T23:31:27.748Z,6.60
2023-04-18T23:36:29.640Z,5.35
2023-04-18T23:41:31.020Z,8.68
2023-04-18T23:46:34.293Z,6.95
2023-04-18T23:51:37.554Z,7.70
2023-04-18T23:56:38.941Z,8.13
